sensor_id;sensor_type;location;lat;lon;timestamp;pressure;altitude;pressure_sealevel;temperature;humidity
25947;BME280;13745;51.470;9.894;2023-06-14T00:01:22;99335.53;;;15.99;59.21
25947;BME280;13745;51.470;9.894;2023-06-14T00:04:07;99334.88;;;15.92;59.38
25947;BME280;13745;51.470;9.894;2023-06-14T00:06:53;99334.25;;;15.86;59.25
25947;BME280;13745;51.470;9.894;2023-06-14T00:09:40;99337.97;;;15.79;59.47
25947;BME280;13745;51.470;9.894;2023-06-14T00:12:27;99332.94;;;15.74;59.61
25947;BME280;13745;51.470;9.894;2023-06-14T00:15:12;99328.81;;;15.67;59.59
25947;BME280;13745;51.470;9.894;2023-06-14T00:17:57;99332.50;;;15.60;59.51
25947;BME280;13745;51.470;9.894;2023-06-14T00:20:44;99337.03;;;15.55;59.81
25947;BME280;13745;51.470;9.894;2023-06-14T00:23:30;99339.75;;;15.52;59.61
25947;BME280;13745;51.470;9.894;2023-06-14T00:26:15;99347.75;;;15.47;59.92
25947;BME280;13745;51.470;9.894;2023-06-14T00:29:03;99340.88;;;15.44;59.97
25947;BME280;13745;51.470;9.894;2023-06-14T00:31:48;99340.06;;;15.42;59.89
25947;BME280;13745;51.470;9.894;2023-06-14T00:34:33;99348.06;;;15.38;60.30
25947;BME280;13745;51.470;9.894;2023-06-14T00:37:19;99341.25;;;15.34;60.14
25947;BME280;13745;51.470;9.894;2023-06-14T00:40:05;99333.50;;;15.31;60.23
25947;BME280;13745;51.470;9.894;2023-06-14T00:42:50;99333.59;;;15.28;60.11
25947;BME280;13745;51.470;9.894;2023-06-14T00:45:36;99338.94;;;15.25;60.16
25947;BME280;13745;51.470;9.894;2023-06-14T00:48:22;99337.31;;;15.21;60.20
25947;BME280;13745;51.470;9.894;2023-06-14T00:51:08;99335.72;;;15.16;60.40
25947;BME280;13745;51.470;9.894;2023-06-14T00:53:53;99335.81;;;15.13;60.78
25947;BME280;13745;51.470;9.894;2023-06-14T00:56:39;99339.44;;;15.09;60.91
25947;BME280;13745;51.470;9.894;2023-06-14T00:59:25;99343.88;;;15.06;60.98
25947;BME280;13745;51.470;9.894;2023-06-14T01:02:12;99331.84;;;15.02;61.39
25947;BME280;13745;51.470;9.894;2023-06-14T01:04:58;99336.34;;;14.97;61.35
25947;BME280;13745;51.470;9.894;2023-06-14T01:07:58;99337.38;;;14.93;61.72
25947;BME280;13745;51.470;9.894;2023-06-14T01:10:53;99329.66;;;14.89;61.70
25947;BME280;13745;51.470;9.894;2023-06-14T01:13:43;99337.59;;;14.85;61.23
25947;BME280;13745;51.470;9.894;2023-06-14T01:16:30;99329.91;;;14.80;61.73
25947;BME280;13745;51.470;9.894;2023-06-14T01:19:17;99325.75;;;14.75;61.95
25947;BME280;13745;51.470;9.894;2023-06-14T01:22:03;99325.03;;;14.70;61.83
25947;BME280;13745;51.470;9.894;2023-06-14T01:24:50;99329.44;;;14.68;62.48
25947;BME280;13745;51.470;9.894;2023-06-14T01:27:39;99331.34;;;14.63;62.48
25947;BME280;13745;51.470;9.894;2023-06-14T01:30:24;99334.94;;;14.58;62.32
25947;BME280;13745;51.470;9.894;2023-06-14T01:33:11;99334.16;;;14.55;62.30
25947;BME280;13745;51.470;9.894;2023-06-14T01:35:57;99336.84;;;14.53;62.43
25947;BME280;13745;51.470;9.894;2023-06-14T01:38:44;99330.88;;;14.50;62.70
25947;BME280;13745;51.470;9.894;2023-06-14T01:41:32;99333.47;;;14.50;62.65
25947;BME280;13745;51.470;9.894;2023-06-14T01:44:18;99330.09;;;14.46;63.09
25947;BME280;13745;51.470;9.894;2023-06-14T01:47:05;99335.38;;;14.43;62.90
25947;BME280;13745;51.470;9.894;2023-06-14T01:49:50;99336.34;;;14.39;63.43
25947;BME280;13745;51.470;9.894;2023-06-14T01:52:36;99334.69;;;14.37;63.46
25947;BME280;13745;51.470;9.894;2023-06-14T01:55:21;99342.63;;;14.33;63.56
25947;BME280;13745;51.470;9.894;2023-06-14T01:58:09;99337.47;;;14.32;63.39
25947;BME280;13745;51.470;9.894;2023-06-14T02:00:55;99341.81;;;14.31;63.58
25947;BME280;13745;51.470;9.894;2023-06-14T02:03:40;99339.28;;;14.28;63.71
25947;BME280;13745;51.470;9.894;2023-06-14T02:06:26;99341.84;;;14.30;63.49
25947;BME280;13745;51.470;9.894;2023-06-14T02:09:12;99337.53;;;14.29;63.80
25947;BME280;13745;51.470;9.894;2023-06-14T02:11:57;99340.19;;;14.27;63.95
25947;BME280;13745;51.470;9.894;2023-06-14T02:14:45;99342.84;;;14.26;64.24
25947;BME280;13745;51.470;9.894;2023-06-14T02:17:31;99337.69;;;14.23;63.84
25947;BME280;13745;51.470;9.894;2023-06-14T02:20:16;99347.25;;;14.24;63.76
25947;BME280;13745;51.470;9.894;2023-06-14T02:23:01;99344.66;;;14.22;64.15
25947;BME280;13745;51.470;9.894;2023-06-14T02:25:49;99343.91;;;14.19;64.36
25947;BME280;13745;51.470;9.894;2023-06-14T02:28:34;99347.47;;;14.16;64.47
25947;BME280;13745;51.470;9.894;2023-06-14T02:31:21;99353.53;;;14.17;64.64
25947;BME280;13745;51.470;9.894;2023-06-14T02:34:07;99344.97;;;14.12;64.50
25947;BME280;13745;51.470;9.894;2023-06-14T02:36:53;99357.25;;;14.08;64.66
25947;BME280;13745;51.470;9.894;2023-06-14T02:39:39;99360.78;;;14.05;64.99
25947;BME280;13745;51.470;9.894;2023-06-14T02:42:24;99359.19;;;14.01;65.08
25947;BME280;13745;51.470;9.894;2023-06-14T02:45:09;99361.00;;;13.98;65.15
25947;BME280;13745;51.470;9.894;2023-06-14T02:47:56;99353.28;;;13.95;65.19
25947;BME280;13745;51.470;9.894;2023-06-14T02:50:41;99361.19;;;13.92;65.25
25947;BME280;13745;51.470;9.894;2023-06-14T02:53:26;99362.03;;;13.92;65.33
25947;BME280;13745;51.470;9.894;2023-06-14T02:56:11;99361.94;;;13.95;65.31
25947;BME280;13745;51.470;9.894;2023-06-14T02:58:57;99360.13;;;13.97;65.58
25947;BME280;13745;51.470;9.894;2023-06-14T03:01:44;99364.44;;;14.00;65.36
25947;BME280;13745;51.470;9.894;2023-06-14T03:04:33;99367.94;;;13.99;65.48
25947;BME280;13745;51.470;9.894;2023-06-14T03:07:22;99373.16;;;13.99;65.68
25947;BME280;13745;51.470;9.894;2023-06-14T03:10:11;99367.16;;;13.95;65.97
25947;BME280;13745;51.470;9.894;2023-06-14T03:12:58;99368.09;;;13.93;66.09
25947;BME280;13745;51.470;9.894;2023-06-14T03:15:45;99371.66;;;13.90;66.05
25947;BME280;13745;51.470;9.894;2023-06-14T03:18:30;99372.56;;;13.88;66.14
25947;BME280;13745;51.470;9.894;2023-06-14T03:21:21;99368.31;;;13.85;66.35
25947;BME280;13745;51.470;9.894;2023-06-14T03:24:07;99378.81;;;13.82;66.54
25947;BME280;13745;51.470;9.894;2023-06-14T03:26:53;99371.03;;;13.81;66.78
25947;BME280;13745;51.470;9.894;2023-06-14T03:29:39;99371.97;;;13.78;66.57
25947;BME280;13745;51.470;9.894;2023-06-14T03:32:25;99383.25;;;13.78;66.88
25947;BME280;13745;51.470;9.894;2023-06-14T03:35:10;99375.50;;;13.75;67.11
25947;BME280;13745;51.470;9.894;2023-06-14T03:38:03;99371.19;;;13.74;66.97
25947;BME280;13745;51.470;9.894;2023-06-14T03:40:48;99385.09;;;13.73;66.92
25947;BME280;13745;51.470;9.894;2023-06-14T03:43:34;99387.78;;;13.70;67.18
25947;BME280;13745;51.470;9.894;2023-06-14T03:46:20;99394.75;;;13.70;67.27
25947;BME280;13745;51.470;9.894;2023-06-14T03:49:05;99399.16;;;13.68;67.39
25947;BME280;13745;51.470;9.894;2023-06-14T03:51:51;99402.63;;;13.68;67.58
25947;BME280;13745;51.470;9.894;2023-06-14T03:54:39;99406.97;;;13.68;67.78
25947;BME280;13745;51.470;9.894;2023-06-14T03:57:29;99407.03;;;13.65;67.89
25947;BME280;13745;51.470;9.894;2023-06-14T04:00:16;99413.13;;;13.65;68.02
25947;BME280;13745;51.470;9.894;2023-06-14T04:03:02;99414.88;;;13.63;68.19
25947;BME280;13745;51.470;9.894;2023-06-14T04:05:48;99409.72;;;13.62;68.00
25947;BME280;13745;51.470;9.894;2023-06-14T04:08:35;99407.13;;;13.62;68.12
25947;BME280;13745;51.470;9.894;2023-06-14T04:11:22;99404.50;;;13.62;68.48
25947;BME280;13745;51.470;9.894;2023-06-14T04:14:09;99411.44;;;13.63;68.23
25947;BME280;13745;51.470;9.894;2023-06-14T04:16:56;99421.81;;;13.64;68.39
25947;BME280;13745;51.470;9.894;2023-06-14T04:19:41;99426.06;;;13.68;68.49
25947;BME280;13745;51.470;9.894;2023-06-14T04:22:26;99426.91;;;13.69;68.57
25947;BME280;13745;51.470;9.894;2023-06-14T04:25:14;99424.25;;;13.70;68.64
25947;BME280;13745;51.470;9.894;2023-06-14T04:28:03;99430.28;;;13.72;68.77
25947;BME280;13745;51.470;9.894;2023-06-14T04:30:49;99431.94;;;13.76;68.69
25947;BME280;13745;51.470;9.894;2023-06-14T04:33:36;99434.41;;;13.81;68.89
25947;BME280;13745;51.470;9.894;2023-06-14T04:36:30;99447.28;;;13.87;68.97
25947;BME280;13745;51.470;9.894;2023-06-14T04:39:16;99455.03;;;13.90;69.11
25947;BME280;13745;51.470;9.894;2023-06-14T04:42:03;99451.44;;;13.94;69.22
25947;BME280;13745;51.470;9.894;2023-06-14T04:44:51;99450.44;;;14.00;69.41
25947;BME280;13745;51.470;9.894;2023-06-14T04:47:40;99454.63;;;14.05;69.39
25947;BME280;13745;51.470;9.894;2023-06-14T04:50:26;99457.06;;;14.12;69.27
25947;BME280;13745;51.470;9.894;2023-06-14T04:53:13;99452.59;;;14.17;69.46
25947;BME280;13745;51.470;9.894;2023-06-14T04:55:58;99456.78;;;14.22;69.72
25947;BME280;13745;51.470;9.894;2023-06-14T04:58:44;99455.75;;;14.28;69.85
25947;BME280;13745;51.470;9.894;2023-06-14T05:01:32;99460.81;;;14.34;69.78
25947;BME280;13745;51.470;9.894;2023-06-14T05:04:19;99465.78;;;14.43;69.57
25947;BME280;13745;51.470;9.894;2023-06-14T05:07:06;99473.38;;;14.52;69.31
25947;BME280;13745;51.470;9.894;2023-06-14T05:09:52;99470.56;;;14.60;69.29
25947;BME280;13745;51.470;9.894;2023-06-14T05:12:38;99477.22;;;14.70;69.29
25947;BME280;13745;51.470;9.894;2023-06-14T05:15:26;99472.56;;;14.81;69.13
25947;BME280;13745;51.470;9.894;2023-06-14T05:18:12;99474.06;;;14.90;69.18
25947;BME280;13745;51.470;9.894;2023-06-14T05:20:58;99466.78;;;15.00;68.98
25947;BME280;13745;51.470;9.894;2023-06-14T05:23:43;99467.41;;;15.08;68.95
25947;BME280;13745;51.470;9.894;2023-06-14T05:26:29;99468.03;;;15.16;68.75
25947;BME280;13745;51.470;9.894;2023-06-14T05:29:14;99471.09;;;15.29;68.83
25947;BME280;13745;51.470;9.894;2023-06-14T05:31:59;99472.44;;;15.42;68.68
25947;BME280;13745;51.470;9.894;2023-06-14T05:34:46;99466.88;;;15.53;68.59
25947;BME280;13745;51.470;9.894;2023-06-14T05:37:31;99472.69;;;15.62;68.44
25947;BME280;13745;51.470;9.894;2023-06-14T05:40:16;99468.91;;;15.72;68.45
25947;BME280;13745;51.470;9.894;2023-06-14T05:43:01;99468.47;;;15.85;67.98
25947;BME280;13745;51.470;9.894;2023-06-14T05:45:47;99465.44;;;15.97;67.85
25947;BME280;13745;51.470;9.894;2023-06-14T05:48:31;99475.50;;;16.09;67.71
25947;BME280;13745;51.470;9.894;2023-06-14T05:51:18;99478.63;;;16.19;67.52
25947;BME280;13745;51.470;9.894;2023-06-14T05:54:03;99479.09;;;16.30;67.47
25947;BME280;13745;51.470;9.894;2023-06-14T05:56:48;99480.50;;;16.40;67.39
25947;BME280;13745;51.470;9.894;2023-06-14T05:59:33;99491.31;;;16.54;67.13
25947;BME280;13745;51.470;9.894;2023-06-14T06:02:19;99493.44;;;16.68;66.92
25947;BME280;13745;51.470;9.894;2023-06-14T06:05:04;99489.56;;;16.80;66.76
25947;BME280;13745;51.470;9.894;2023-06-14T06:07:51;99488.38;;;16.89;66.40
25947;BME280;13745;51.470;9.894;2023-06-14T06:10:37;99493.06;;;17.02;66.68
25947;BME280;13745;51.470;9.894;2023-06-14T06:13:22;99486.56;;;17.12;66.20
25947;BME280;13745;51.470;9.894;2023-06-14T06:16:08;99490.56;;;17.23;66.21
25947;BME280;13745;51.470;9.894;2023-06-14T06:18:53;99484.84;;;17.35;65.96
25947;BME280;13745;51.470;9.894;2023-06-14T06:21:38;99489.53;;;17.49;65.80
25947;BME280;13745;51.470;9.894;2023-06-14T06:24:25;99487.25;;;17.61;65.67
25947;BME280;13745;51.470;9.894;2023-06-14T06:27:10;99487.66;;;17.74;65.25
25947;BME280;13745;51.470;9.894;2023-06-14T06:29:56;99483.66;;;17.86;65.20
25947;BME280;13745;51.470;9.894;2023-06-14T06:32:41;99488.44;;;17.98;65.00
25947;BME280;13745;51.470;9.894;2023-06-14T06:35:26;99496.63;;;18.11;64.85
25947;BME280;13745;51.470;9.894;2023-06-14T06:38:12;99491.91;;;18.19;64.56
25947;BME280;13745;51.470;9.894;2023-06-14T06:40:59;99489.78;;;18.27;64.55
25947;BME280;13745;51.470;9.894;2023-06-14T06:43:44;99480.69;;;18.36;64.36
25947;BME280;13745;51.470;9.894;2023-06-14T06:46:29;99482.88;;;18.45;64.27
25947;BME280;13745;51.470;9.894;2023-06-14T06:49:14;99480.00;;;18.51;64.14
25947;BME280;13745;51.470;9.894;2023-06-14T06:52:00;99484.34;;;18.52;64.43
25947;BME280;13745;51.470;9.894;2023-06-14T06:54:46;99491.16;;;18.56;64.27
25947;BME280;13745;51.470;9.894;2023-06-14T06:57:32;99489.13;;;18.63;64.02
25947;BME280;13745;51.470;9.894;2023-06-14T07:00:18;99502.81;;;18.71;63.90
25947;BME280;13745;51.470;9.894;2023-06-14T07:03:03;99509.41;;;18.79;63.96
25947;BME280;13745;51.470;9.894;2023-06-14T07:05:48;99507.34;;;18.86;63.87
25947;BME280;13745;51.470;9.894;2023-06-14T07:08:33;99514.75;;;18.97;63.79
25947;BME280;13745;51.470;9.894;2023-06-14T07:11:19;99522.06;;;19.09;63.61
25947;BME280;13745;51.470;9.894;2023-06-14T07:14:06;99511.09;;;19.20;63.35
25947;BME280;13745;51.470;9.894;2023-06-14T07:16:51;99519.03;;;19.37;62.93
25947;BME280;13745;51.470;9.894;2023-06-14T07:19:36;99517.00;;;19.42;62.83
25947;BME280;13745;51.470;9.894;2023-06-14T07:22:23;99526.31;;;19.49;62.74
25947;BME280;13745;51.470;9.894;2023-06-14T07:25:09;99526.41;;;19.67;62.33
25947;BME280;13745;51.470;9.894;2023-06-14T07:27:56;99531.69;;;19.84;61.43
25947;BME280;13745;51.470;9.894;2023-06-14T07:30:43;99535.53;;;19.96;61.20
25947;BME280;13745;51.470;9.894;2023-06-14T07:33:28;99528.56;;;20.12;60.65
25947;BME280;13745;51.470;9.894;2023-06-14T07:36:13;99525.09;;;20.29;60.67
25947;BME280;13745;51.470;9.894;2023-06-14T07:38:59;99534.59;;;20.31;60.62
25947;BME280;13745;51.470;9.894;2023-06-14T07:41:47;99530.47;;;20.08;61.06
25947;BME280;13745;51.470;9.894;2023-06-14T07:44:32;99533.75;;;19.96;61.22
25947;BME280;13745;51.470;9.894;2023-06-14T07:47:18;99527.38;;;20.00;61.22
25947;BME280;13745;51.470;9.894;2023-06-14T07:50:04;99525.38;;;20.23;61.09
25947;BME280;13745;51.470;9.894;2023-06-14T07:52:51;99521.44;;;20.31;60.96
25947;BME280;13745;51.470;9.894;2023-06-14T07:55:36;99526.53;;;20.52;60.30
25947;BME280;13745;51.470;9.894;2023-06-14T07:58:22;99517.81;;;20.84;60.06
25947;BME280;13745;51.470;9.894;2023-06-14T08:01:08;99530.25;;;20.98;59.88
25947;BME280;13745;51.470;9.894;2023-06-14T08:03:55;99529.41;;;20.97;59.50
25947;BME280;13745;51.470;9.894;2023-06-14T08:06:41;99526.44;;;21.03;59.58
25947;BME280;13745;51.470;9.894;2023-06-14T08:09:28;99530.47;;;21.11;59.32
25947;BME280;13745;51.470;9.894;2023-06-14T08:12:13;99532.75;;;21.17;58.86
25947;BME280;13745;51.470;9.894;2023-06-14T08:14:58;99531.47;;;21.24;58.66
25947;BME280;13745;51.470;9.894;2023-06-14T08:17:44;99530.06;;;21.34;58.96
25947;BME280;13745;51.470;9.894;2023-06-14T08:20:30;99530.16;;;21.33;58.27
25947;BME280;13745;51.470;9.894;2023-06-14T08:23:16;99538.16;;;21.31;58.02
25947;BME280;13745;51.470;9.894;2023-06-14T08:26:02;99531.09;;;21.31;58.42
25947;BME280;13745;51.470;9.894;2023-06-14T08:28:48;99536.72;;;21.57;57.68
25947;BME280;13745;51.470;9.894;2023-06-14T08:31:33;99530.28;;;21.93;57.59
25947;BME280;13745;51.470;9.894;2023-06-14T08:34:19;99520.91;;;22.19;56.80
25947;BME280;13745;51.470;9.894;2023-06-14T08:37:05;99518.47;;;22.30;56.42
25947;BME280;13745;51.470;9.894;2023-06-14T08:39:50;99512.91;;;22.34;56.21
25947;BME280;13745;51.470;9.894;2023-06-14T08:42:36;99518.25;;;22.33;56.18
25947;BME280;13745;51.470;9.894;2023-06-14T08:45:23;99514.06;;;22.45;56.16
25947;BME280;13745;51.470;9.894;2023-06-14T08:48:08;99511.03;;;22.65;56.21
25947;BME280;13745;51.470;9.894;2023-06-14T08:50:55;99511.06;;;22.79;55.68
25947;BME280;13745;51.470;9.894;2023-06-14T08:53:51;99518.09;;;22.94;55.82
25947;BME280;13745;51.470;9.894;2023-06-14T08:56:37;99510.16;;;23.09;55.81
25947;BME280;13745;51.470;9.894;2023-06-14T08:59:25;99519.41;;;23.02;54.75
25947;BME280;13745;51.470;9.894;2023-06-14T09:02:11;99507.66;;;23.20;54.25
25947;BME280;13745;51.470;9.894;2023-06-14T09:04:56;99516.97;;;23.40;54.21
25947;BME280;13745;51.470;9.894;2023-06-14T09:07:44;99516.09;;;23.68;54.12
25947;BME280;13745;51.470;9.894;2023-06-14T09:10:34;99511.91;;;23.91;53.81
25947;BME280;13745;51.470;9.894;2023-06-14T09:13:21;99518.03;;;23.78;53.33
25947;BME280;13745;51.470;9.894;2023-06-14T09:16:06;99520.22;;;23.72;53.47
25947;BME280;13745;51.470;9.894;2023-06-14T09:18:51;99522.16;;;23.82;53.23
25947;BME280;13745;51.470;9.894;2023-06-14T09:21:37;99515.34;;;24.05;52.83
25947;BME280;13745;51.470;9.894;2023-06-14T09:24:23;99515.38;;;24.31;52.07
25947;BME280;13745;51.470;9.894;2023-06-14T09:27:15;99508.66;;;24.52;51.82
25947;BME280;13745;51.470;9.894;2023-06-14T09:30:02;99512.81;;;24.69;51.68
25947;BME280;13745;51.470;9.894;2023-06-14T09:32:48;99519.81;;;24.83;50.98
25947;BME280;13745;51.470;9.894;2023-06-14T09:35:33;99514.38;;;24.97;50.99
25947;BME280;13745;51.470;9.894;2023-06-14T09:38:18;99515.97;;;25.12;50.66
25947;BME280;13745;51.470;9.894;2023-06-14T09:41:04;99516.34;;;25.32;50.30
25947;BME280;13745;51.470;9.894;2023-06-14T09:43:51;99513.53;;;25.46;49.45
25947;BME280;13745;51.470;9.894;2023-06-14T09:46:36;99520.81;;;25.55;49.83
25947;BME280;13745;51.470;9.894;2023-06-14T09:49:22;99511.88;;;25.69;49.77
25947;BME280;13745;51.470;9.894;2023-06-14T09:52:10;99516.88;;;25.73;48.82
25947;BME280;13745;51.470;9.894;2023-06-14T09:54:59;99519.22;;;25.89;48.26
25947;BME280;13745;51.470;9.894;2023-06-14T09:57:45;99510.22;;;26.03;48.36
25947;BME280;13745;51.470;9.894;2023-06-14T10:00:34;99519.25;;;26.24;47.64
25947;BME280;13745;51.470;9.894;2023-06-14T10:03:27;99512.91;;;26.38;47.62
25947;BME280;13745;51.470;9.894;2023-06-14T10:06:13;99516.91;;;26.55;47.15
25947;BME280;13745;51.470;9.894;2023-06-14T10:08:59;99518.13;;;26.62;47.34
25947;BME280;13745;51.470;9.894;2023-06-14T10:11:45;99520.94;;;26.60;46.96
25947;BME280;13745;51.470;9.894;2023-06-14T10:14:31;99513.31;;;26.67;46.69
25947;BME280;13745;51.470;9.894;2023-06-14T10:17:23;99513.31;;;26.78;46.00
25947;BME280;13745;51.470;9.894;2023-06-14T10:20:19;99509.69;;;26.79;46.05
25947;BME280;13745;51.470;9.894;2023-06-14T10:23:10;99515.75;;;26.81;45.88
25947;BME280;13745;51.470;9.894;2023-06-14T10:25:58;99504.97;;;26.72;46.17
25947;BME280;13745;51.470;9.894;2023-06-14T10:28:55;99508.84;;;26.68;46.09
25947;BME280;13745;51.470;9.894;2023-06-14T10:31:42;99501.94;;;26.54;46.62
25947;BME280;13745;51.470;9.894;2023-06-14T10:34:29;99508.22;;;26.42;46.25
25947;BME280;13745;51.470;9.894;2023-06-14T10:37:16;99501.47;;;26.49;46.48
25947;BME280;13745;51.470;9.894;2023-06-14T10:40:01;99505.59;;;26.75;46.39
25947;BME280;13745;51.470;9.894;2023-06-14T10:42:51;99499.06;;;26.91;46.08
25947;BME280;13745;51.470;9.894;2023-06-14T10:45:36;99503.09;;;27.07;45.97
25947;BME280;13745;51.470;9.894;2023-06-14T10:48:29;99501.63;;;27.14;45.48
25947;BME280;13745;51.470;9.894;2023-06-14T10:51:20;99503.91;;;27.19;45.61
25947;BME280;13745;51.470;9.894;2023-06-14T10:54:11;99496.50;;;26.89;45.07
25947;BME280;13745;51.470;9.894;2023-06-14T10:56:56;99494.97;;;27.09;44.85
25947;BME280;13745;51.470;9.894;2023-06-14T10:59:43;99492.16;;;27.33;44.25
25947;BME280;13745;51.470;9.894;2023-06-14T11:02:46;99487.41;;;27.48;44.25
25947;BME280;13745;51.470;9.894;2023-06-14T11:05:42;99485.06;;;27.54;44.83
25947;BME280;13745;51.470;9.894;2023-06-14T11:08:58;99481.06;;;27.60;44.97
25947;BME280;13745;51.470;9.894;2023-06-14T11:11:51;99486.25;;;27.61;44.76
25947;BME280;13745;51.470;9.894;2023-06-14T11:14:36;99489.06;;;27.60;44.86
25947;BME280;13745;51.470;9.894;2023-06-14T11:17:21;99492.28;;;27.31;44.55
25947;BME280;13745;51.470;9.894;2023-06-14T11:20:10;99480.31;;;26.92;44.68
25947;BME280;13745;51.470;9.894;2023-06-14T11:23:00;99486.00;;;26.87;44.99
25947;BME280;13745;51.470;9.894;2023-06-14T11:25:50;99486.09;;;26.97;44.82
25947;BME280;13745;51.470;9.894;2023-06-14T11:28:37;99478.59;;;27.02;45.32
25947;BME280;13745;51.470;9.894;2023-06-14T11:31:23;99482.25;;;27.01;44.70
25947;BME280;13745;51.470;9.894;2023-06-14T11:34:08;99486.25;;;26.84;44.91
25947;BME280;13745;51.470;9.894;2023-06-14T11:36:54;99483.84;;;26.81;44.91
25947;BME280;13745;51.470;9.894;2023-06-14T11:39:43;99485.50;;;26.60;45.02
25947;BME280;13745;51.470;9.894;2023-06-14T11:42:30;99479.72;;;26.77;45.15
25947;BME280;13745;51.470;9.894;2023-06-14T11:45:15;99477.53;;;27.16;44.43
25947;BME280;13745;51.470;9.894;2023-06-14T11:48:00;99479.19;;;27.39;44.34
25947;BME280;13745;51.470;9.894;2023-06-14T11:50:49;99472.22;;;27.59;43.55
25947;BME280;13745;51.470;9.894;2023-06-14T11:53:35;99475.09;;;27.79;43.72
25947;BME280;13745;51.470;9.894;2023-06-14T11:56:20;99464.13;;;27.93;44.24
25947;BME280;13745;51.470;9.894;2023-06-14T11:59:07;99464.69;;;27.96;44.41
25947;BME280;13745;51.470;9.894;2023-06-14T12:01:53;99464.13;;;27.93;43.85
25947;BME280;13745;51.470;9.894;2023-06-14T12:04:40;99460.94;;;27.99;44.19
25947;BME280;13745;51.470;9.894;2023-06-14T12:07:25;99462.72;;;27.89;44.19
25947;BME280;13745;51.470;9.894;2023-06-14T12:10:10;99460.22;;;27.65;44.24
25947;BME280;13745;51.470;9.894;2023-06-14T12:12:57;99462.72;;;27.34;43.85
25947;BME280;13745;51.470;9.894;2023-06-14T12:15:44;99457.50;;;27.44;44.35
25947;BME280;13745;51.470;9.894;2023-06-14T12:18:33;99459.09;;;27.79;43.95
25947;BME280;13745;51.470;9.894;2023-06-14T12:21:22;99459.97;;;28.00;43.40
25947;BME280;13745;51.470;9.894;2023-06-14T12:24:08;99453.06;;;28.18;43.47
25947;BME280;13745;51.470;9.894;2023-06-14T12:26:57;99449.56;;;28.18;42.77
25947;BME280;13745;51.470;9.894;2023-06-14T12:29:43;99441.88;;;28.04;43.01
25947;BME280;13745;51.470;9.894;2023-06-14T12:32:30;99441.75;;;28.05;42.69
25947;BME280;13745;51.470;9.894;2023-06-14T12:35:15;99454.31;;;27.93;42.83
25947;BME280;13745;51.470;9.894;2023-06-14T12:38:00;99459.56;;;27.84;43.07
25947;BME280;13745;51.470;9.894;2023-06-14T12:40:47;99455.22;;;27.83;43.29
25947;BME280;13745;51.470;9.894;2023-06-14T12:43:33;99449.94;;;27.92;43.45
25947;BME280;13745;51.470;9.894;2023-06-14T12:46:18;99456.00;;;27.94;43.88
25947;BME280;13745;51.470;9.894;2023-06-14T12:49:07;99440.78;;;27.85;43.70
25947;BME280;13745;51.470;9.894;2023-06-14T12:51:53;99446.31;;;27.73;43.79
25947;BME280;13745;51.470;9.894;2023-06-14T12:54:38;99448.63;;;27.55;43.98
25947;BME280;13745;51.470;9.894;2023-06-14T12:57:24;99459.59;;;27.40;44.25
25947;BME280;13745;51.470;9.894;2023-06-14T13:00:10;99453.28;;;27.30;44.39
25947;BME280;13745;51.470;9.894;2023-06-14T13:02:56;99456.69;;;27.21;44.65
25947;BME280;13745;51.470;9.894;2023-06-14T13:05:43;99453.34;;;27.08;44.88
25947;BME280;13745;51.470;9.894;2023-06-14T13:08:28;99459.03;;;26.92;44.75
25947;BME280;13745;51.470;9.894;2023-06-14T13:11:14;99460.59;;;26.83;45.27
25947;BME280;13745;51.470;9.894;2023-06-14T13:13:59;99462.53;;;26.93;45.53
25947;BME280;13745;51.470;9.894;2023-06-14T13:16:44;99458.78;;;27.18;45.43
25947;BME280;13745;51.470;9.894;2023-06-14T13:19:29;99450.44;;;27.54;45.03
25947;BME280;13745;51.470;9.894;2023-06-14T13:22:15;99447.44;;;27.80;44.42
25947;BME280;13745;51.470;9.894;2023-06-14T13:25:01;99440.50;;;27.88;43.92
25947;BME280;13745;51.470;9.894;2023-06-14T13:27:46;99436.78;;;27.80;43.87
25947;BME280;13745;51.470;9.894;2023-06-14T13:30:31;99442.56;;;27.64;44.30
25947;BME280;13745;51.470;9.894;2023-06-14T13:33:16;99452.88;;;27.46;44.33
25947;BME280;13745;51.470;9.894;2023-06-14T13:36:02;99452.84;;;27.25;44.39
25947;BME280;13745;51.470;9.894;2023-06-14T13:38:48;99456.47;;;27.02;44.27
25947;BME280;13745;51.470;9.894;2023-06-14T13:41:35;99455.16;;;26.74;44.98
25947;BME280;13745;51.470;9.894;2023-06-14T13:44:20;99451.53;;;26.52;45.26
25947;BME280;13745;51.470;9.894;2023-06-14T13:47:05;99453.06;;;26.32;45.93
25947;BME280;13745;51.470;9.894;2023-06-14T13:49:51;99460.28;;;26.30;45.97
25947;BME280;13745;51.470;9.894;2023-06-14T13:52:36;99458.06;;;26.48;46.18
25947;BME280;13745;51.470;9.894;2023-06-14T13:55:22;99450.81;;;26.50;46.21
25947;BME280;13745;51.470;9.894;2023-06-14T13:58:07;99459.13;;;26.46;46.15
25947;BME280;13745;51.470;9.894;2023-06-14T14:00:52;99444.69;;;26.37;45.84
25947;BME280;13745;51.470;9.894;2023-06-14T14:03:38;99449.63;;;26.19;45.95
25947;BME280;13745;51.470;9.894;2023-06-14T14:06:23;99458.19;;;26.12;46.30
25947;BME280;13745;51.470;9.894;2023-06-14T14:09:08;99454.34;;;26.16;46.57
25947;BME280;13745;51.470;9.894;2023-06-14T14:11:55;99443.47;;;26.19;47.17
25947;BME280;13745;51.470;9.894;2023-06-14T14:14:40;99446.72;;;26.11;47.01
25947;BME280;13745;51.470;9.894;2023-06-14T14:17:26;99447.66;;;25.99;47.55
25947;BME280;13745;51.470;9.894;2023-06-14T14:20:11;99449.31;;;25.89;47.27
25947;BME280;13745;51.470;9.894;2023-06-14T14:22:59;99449.28;;;25.77;47.64
25947;BME280;13745;51.470;9.894;2023-06-14T14:25:44;99456.72;;;25.72;47.79
25947;BME280;13745;51.470;9.894;2023-06-14T14:28:30;99455.25;;;25.68;47.77
25947;BME280;13745;51.470;9.894;2023-06-14T14:31:16;99465.34;;;25.63;47.77
25947;BME280;13745;51.470;9.894;2023-06-14T14:34:01;99455.03;;;25.71;47.50
25947;BME280;13745;51.470;9.894;2023-06-14T14:36:46;99459.16;;;25.75;47.52
25947;BME280;13745;51.470;9.894;2023-06-14T14:39:31;99453.31;;;25.70;47.65
25947;BME280;13745;51.470;9.894;2023-06-14T14:42:17;99453.03;;;25.62;47.52